createdAt,value
2018-09-26T00:01:22.802Z,84.10
2018-09-26T00:03:56.728Z,84.30
2018-09-26T00:06:25.539Z,84.90
2018-09-26T00:08:54.342Z,85.40
2018-09-26T00:11:23.095Z,85.60
2018-09-26T00:13:51.945Z,86.50
2018-09-26T00:16:20.785Z,86.50
2018-09-26T00:18:49.585Z,86.10
2018-09-26T00:21:18.381Z,85.60
2018-09-26T00:23:47.177Z,85.10
2018-09-26T00:26:15.991Z,84.30
2018-09-26T00:28:44.737Z,83.90
2018-09-26T00:31:13.497Z,83.40
2018-09-26T00:33:42.297Z,83.00
2018-09-26T00:36:11.126Z,83.00
2018-09-26T00:38:39.861Z,82.50
2018-09-26T00:41:08.638Z,82.00
2018-09-26T00:43:37.402Z,82.50
2018-09-26T00:46:06.274Z,82.70
2018-09-26T00:48:35.053Z,82.40
2018-09-26T00:51:03.779Z,82.00
2018-09-26T00:53:32.606Z,81.50
2018-09-26T00:56:02.051Z,82.20
2018-09-26T00:58:30.812Z,81.80
2018-09-26T01:00:59.621Z,82.00
2018-09-26T01:03:28.546Z,82.20
2018-09-26T01:05:57.362Z,82.50
2018-09-26T01:08:26.182Z,84.30
2018-09-26T01:10:54.989Z,84.70
2018-09-26T01:13:23.799Z,85.10
2018-09-26T01:15:52.590Z,84.80
2018-09-26T01:18:21.479Z,84.80
2018-09-26T01:20:51.139Z,84.70
2018-09-26T01:23:19.931Z,85.00
2018-09-26T01:25:48.794Z,83.90
2018-09-26T01:28:17.997Z,84.70
2018-09-26T01:30:46.773Z,85.00
2018-09-26T01:33:15.585Z,85.10
2018-09-26T01:35:44.497Z,84.00
2018-09-26T01:38:13.277Z,83.70
2018-09-26T01:40:42.192Z,84.20
2018-09-26T01:43:10.955Z,84.70
2018-09-26T01:45:39.747Z,84.90
2018-09-26T01:48:08.676Z,85.00
2018-09-26T01:50:37.513Z,84.90
2018-09-26T01:53:06.539Z,85.00
2018-09-26T01:55:35.357Z,84.70
2018-09-26T01:58:04.446Z,85.00
2018-09-26T02:00:33.248Z,85.20
2018-09-26T02:03:02.025Z,84.50
2018-09-26T02:05:30.821Z,84.30
2018-09-26T02:07:59.575Z,83.50
2018-09-26T02:10:28.432Z,83.10
2018-09-26T02:12:57.232Z,82.60
2018-09-26T02:15:26.014Z,82.50
2018-09-26T02:17:54.797Z,82.30
2018-09-26T02:20:23.874Z,82.30
2018-09-26T02:22:53.184Z,83.80
2018-09-26T02:25:22.027Z,84.50
2018-09-26T02:27:50.913Z,84.80
2018-09-26T02:30:19.733Z,84.50
2018-09-26T02:32:48.494Z,85.20
2018-09-26T02:35:17.408Z,84.30
2018-09-26T02:37:46.185Z,83.80
2018-09-26T02:40:15.038Z,85.50
2018-09-26T02:42:43.958Z,85.30
2018-09-26T02:45:12.786Z,85.30
2018-09-26T02:47:41.556Z,84.50
2018-09-26T02:50:10.361Z,84.10
2018-09-26T02:52:39.129Z,83.70
2018-09-26T02:55:07.984Z,83.40
2018-09-26T02:57:36.805Z,82.50
2018-09-26T03:00:05.739Z,81.60
2018-09-26T03:02:34.539Z,81.50
2018-09-26T03:05:03.309Z,81.50
2018-09-26T03:07:32.582Z,82.70
2018-09-26T03:10:01.334Z,84.40
2018-09-26T03:12:30.080Z,84.90
2018-09-26T03:14:58.817Z,84.70
2018-09-26T03:17:27.596Z,84.10
2018-09-26T03:19:56.710Z,83.50
2018-09-26T03:22:25.534Z,84.00
2018-09-26T03:24:54.322Z,84.50
2018-09-26T03:27:23.159Z,84.00
2018-09-26T03:29:51.918Z,84.80
2018-09-26T03:32:20.705Z,84.70
2018-09-26T03:34:49.482Z,84.70
2018-09-26T03:37:18.225Z,84.80
2018-09-26T03:39:46.997Z,84.80
2018-09-26T03:42:15.846Z,84.40
2018-09-26T03:44:44.576Z,84.00
2018-09-26T03:47:13.649Z,84.30
2018-09-26T03:49:42.483Z,84.60
2018-09-26T03:52:11.252Z,84.20
2018-09-26T03:54:40.062Z,83.60
2018-09-26T03:57:08.924Z,83.80
2018-09-26T03:59:37.707Z,83.90
2018-09-26T04:02:06.553Z,82.90
2018-09-26T04:04:35.347Z,82.80
2018-09-26T04:07:04.251Z,82.00
2018-09-26T04:09:35.024Z,81.70
2018-09-26T04:12:04.113Z,81.70
2018-09-26T04:14:33.039Z,81.40
2018-09-26T04:17:01.850Z,81.80
2018-09-26T04:19:30.859Z,81.40
2018-09-26T04:21:59.694Z,81.40
2018-09-26T04:24:28.544Z,82.00
2018-09-26T04:26:57.562Z,81.50
2018-09-26T04:29:26.191Z,81.20
2018-09-26T04:31:54.958Z,80.60
2018-09-26T04:34:23.771Z,79.80
2018-09-26T04:36:52.869Z,80.80
2018-09-26T04:39:22.017Z,81.50
2018-09-26T04:41:50.805Z,81.50
2018-09-26T04:44:19.832Z,81.50
2018-09-26T04:46:48.608Z,81.10
2018-09-26T04:49:17.646Z,80.90
2018-09-26T04:51:46.440Z,80.50
2018-09-26T04:54:15.238Z,80.10
2018-09-26T04:56:44.058Z,80.90
2018-09-26T04:59:12.828Z,81.10
2018-09-26T05:01:41.625Z,80.90
2018-09-26T05:04:10.384Z,80.50
2018-09-26T05:06:39.201Z,80.20
2018-09-26T05:09:09.944Z,80.60
2018-09-26T05:11:38.726Z,80.40
2018-09-26T05:14:08.062Z,79.70
2018-09-26T05:16:36.867Z,80.00
2018-09-26T05:19:05.710Z,79.30
2018-09-26T05:21:34.519Z,78.30
2018-09-26T05:24:03.385Z,78.60
2018-09-26T05:26:32.138Z,77.80
2018-09-26T05:29:00.884Z,78.50
2018-09-26T05:31:29.711Z,78.30
2018-09-26T05:33:58.467Z,78.50
2018-09-26T05:36:27.262Z,78.30
2018-09-26T05:38:56.364Z,77.70
2018-09-26T05:41:25.126Z,77.90
2018-09-26T05:43:53.852Z,77.70
2018-09-26T05:46:22.812Z,78.30
2018-09-26T05:48:51.602Z,77.80
2018-09-26T05:51:20.395Z,78.30
2018-09-26T05:53:49.225Z,78.30
2018-09-26T05:56:19.631Z,78.10
2018-09-26T05:58:48.392Z,78.50
2018-09-26T06:01:17.219Z,78.80
2018-09-26T06:03:46.121Z,77.70
2018-09-26T06:06:14.916Z,78.30
2018-09-26T06:08:43.710Z,77.70
2018-09-26T06:11:12.493Z,76.70
2018-09-26T06:13:41.277Z,75.80
2018-09-26T06:16:10.556Z,75.90
2018-09-26T06:18:39.790Z,76.10
2018-09-26T06:21:08.695Z,75.50
2018-09-26T06:23:37.490Z,75.50
2018-09-26T06:26:06.428Z,74.70
2018-09-26T06:28:35.225Z,75.50
2018-09-26T06:31:03.991Z,74.60
2018-09-26T06:33:32.838Z,74.20
2018-09-26T06:36:01.686Z,76.50
2018-09-26T06:38:30.516Z,76.50
2018-09-26T06:40:59.301Z,75.90
2018-09-26T06:43:28.124Z,75.60
2018-09-26T06:45:56.932Z,75.10
2018-09-26T06:48:25.752Z,75.10
2018-09-26T06:50:54.560Z,74.20
2018-09-26T06:53:23.479Z,74.30
2018-09-26T06:55:52.274Z,72.80
2018-09-26T06:58:21.158Z,71.90
2018-09-26T07:00:49.977Z,71.00
2018-09-26T07:03:18.747Z,71.20
2018-09-26T07:05:47.576Z,69.50
2018-09-26T07:08:16.374Z,70.10
2018-09-26T07:10:45.251Z,68.00
2018-09-26T07:13:14.034Z,68.30
2018-09-26T07:15:42.885Z,66.80
2018-09-26T07:18:11.630Z,66.70
2018-09-26T07:20:40.456Z,65.60
2018-09-26T07:23:09.210Z,66.90
2018-09-26T07:25:38.006Z,65.50
2018-09-26T07:28:06.844Z,65.40
2018-09-26T07:30:35.619Z,64.80
2018-09-26T07:33:04.955Z,65.10
2018-09-26T07:35:33.824Z,64.00
2018-09-26T07:38:02.707Z,64.80
2018-09-26T07:40:31.509Z,62.90
2018-09-26T07:43:00.292Z,63.60
2018-09-26T07:45:29.154Z,63.70
2018-09-26T07:47:57.941Z,63.90
2018-09-26T07:50:26.784Z,63.20
2018-09-26T07:52:55.568Z,61.70
2018-09-26T07:55:24.365Z,62.00
2018-09-26T07:57:53.190Z,62.40
2018-09-26T08:00:22.005Z,63.30
2018-09-26T08:02:50.809Z,62.80
2018-09-26T08:05:19.700Z,63.30
2018-09-26T08:07:48.563Z,62.20
2018-09-26T08:10:17.372Z,62.90
2018-09-26T08:12:46.178Z,62.50
2018-09-26T08:15:14.945Z,62.20
2018-09-26T08:17:43.757Z,62.80
2018-09-26T08:20:12.553Z,61.80
2018-09-26T08:22:41.326Z,61.50
2018-09-26T08:25:10.094Z,60.80
2018-09-26T08:27:39.044Z,60.00
2018-09-26T08:30:08.162Z,60.60
2018-09-26T08:32:36.946Z,61.20
2018-09-26T08:35:05.831Z,61.00
2018-09-26T08:37:34.665Z,61.90
2018-09-26T08:40:03.461Z,59.60
2018-09-26T08:42:32.225Z,57.90
2018-09-26T08:45:01.054Z,58.40
2018-09-26T08:47:29.854Z,58.70
2018-09-26T08:50:00.636Z,59.20
2018-09-26T08:52:29.481Z,59.00
2018-09-26T08:54:58.277Z,57.70
2018-09-26T08:57:27.120Z,57.70
2018-09-26T08:59:55.913Z,55.30
2018-09-26T09:02:24.681Z,56.20
2018-09-26T09:04:53.461Z,56.40
2018-09-26T09:07:22.218Z,54.20
2018-09-26T09:09:51.028Z,54.60
2018-09-26T09:12:19.867Z,56.10
2018-09-26T09:14:48.781Z,56.20
2018-09-26T09:17:17.449Z,58.30
2018-09-26T09:19:46.329Z,57.70
2018-09-26T09:22:15.196Z,57.40
2018-09-26T09:24:44.328Z,56.80
2018-09-26T09:27:13.173Z,55.80
2018-09-26T09:29:41.873Z,55.30
2018-09-26T09:32:10.704Z,54.60
2018-09-26T09:34:39.496Z,53.70
2018-09-26T09:37:08.292Z,53.10
2018-09-26T09:39:37.065Z,53.10
2018-09-26T09:42:05.829Z,55.10
2018-09-26T09:44:34.796Z,54.80
2018-09-26T09:47:03.560Z,53.00
2018-09-26T09:49:32.368Z,52.70
2018-09-26T09:52:01.125Z,54.00
2018-09-26T09:54:29.949Z,52.60
2018-09-26T09:56:58.861Z,53.20
2018-09-26T09:59:27.666Z,52.50
2018-09-26T10:01:56.454Z,52.20
2018-09-26T10:04:25.569Z,52.00
2018-09-26T10:06:54.435Z,53.60
2018-09-26T10:09:23.177Z,50.80
2018-09-26T10:11:51.963Z,52.10
2018-09-26T10:14:20.830Z,51.90
2018-09-26T10:16:49.662Z,51.90
2018-09-26T10:19:18.497Z,49.90
2018-09-26T10:21:47.271Z,50.60
2018-09-26T10:24:16.045Z,50.40
2018-09-26T10:26:44.989Z,50.80
2018-09-26T10:29:13.780Z,49.60
2018-09-26T10:31:49.044Z,51.80
2018-09-26T10:34:17.876Z,49.90
2018-09-26T10:36:46.637Z,49.60
2018-09-26T10:39:15.437Z,50.90
2018-09-26T10:41:44.241Z,49.00
2018-09-26T10:44:13.135Z,48.60
2018-09-26T10:46:41.950Z,48.90
2018-09-26T10:49:10.729Z,47.60
2018-09-26T10:51:39.492Z,48.20
2018-09-26T10:54:08.426Z,47.70
2018-09-26T10:56:37.788Z,49.00
2018-09-26T10:59:06.383Z,48.30
2018-09-26T11:01:35.139Z,47.60
2018-09-26T11:04:03.957Z,47.80
2018-09-26T11:06:32.767Z,46.10
2018-09-26T11:09:01.632Z,47.50
2018-09-26T11:11:30.513Z,46.40
2018-09-26T11:13:59.684Z,47.10
2018-09-26T11:16:28.542Z,47.50
2018-09-26T11:18:57.516Z,46.40
2018-09-26T11:21:26.289Z,47.70
2018-09-26T11:23:55.250Z,47.50
2018-09-26T11:26:25.193Z,48.20
2018-09-26T11:28:54.101Z,46.40
2018-09-26T11:31:24.209Z,46.40
2018-09-26T11:33:53.431Z,46.20
2018-09-26T11:36:22.150Z,44.30
2018-09-26T11:38:51.317Z,46.30
2018-09-26T11:41:20.176Z,45.60
2018-09-26T11:43:49.097Z,45.70
2018-09-26T11:46:17.966Z,44.30
2018-09-26T11:48:46.834Z,43.30
2018-09-26T11:51:15.720Z,44.20
2018-09-26T11:53:44.510Z,42.80
2018-09-26T11:56:13.604Z,44.60
2018-09-26T11:58:42.401Z,45.60
2018-09-26T12:01:11.477Z,47.40
2018-09-26T12:03:40.326Z,44.90
2018-09-26T12:06:09.271Z,46.00
2018-09-26T12:08:38.083Z,46.50
2018-09-26T12:11:08.728Z,44.50
2018-09-26T12:13:37.604Z,43.80
2018-09-26T12:16:06.403Z,45.40
2018-09-26T12:18:35.224Z,45.80
2018-09-26T12:21:04.052Z,43.20
2018-09-26T12:23:32.893Z,43.20
2018-09-26T12:26:01.771Z,42.80
2018-09-26T12:28:30.593Z,41.70
2018-09-26T12:30:59.404Z,41.70
2018-09-26T12:33:28.151Z,42.50
2018-09-26T12:35:56.924Z,42.80
2018-09-26T12:38:25.759Z,44.30
2018-09-26T12:40:54.523Z,43.10
2018-09-26T12:43:24.735Z,44.40
2018-09-26T12:45:55.158Z,44.20
2018-09-26T12:48:25.106Z,44.60
2018-09-26T12:50:55.961Z,46.00
2018-09-26T12:53:25.085Z,44.60
2018-09-26T12:55:53.816Z,45.30
2018-09-26T12:58:22.699Z,44.30
2018-09-26T13:00:51.509Z,44.30
2018-09-26T13:03:20.263Z,43.10
2018-09-26T13:05:49.071Z,43.80
2018-09-26T13:08:17.929Z,43.50
2018-09-26T13:10:46.730Z,44.00
2018-09-26T13:13:15.477Z,43.30
2018-09-26T13:15:44.281Z,42.30
2018-09-26T13:18:13.156Z,42.60
2018-09-26T13:20:43.628Z,44.20
2018-09-26T13:23:13.500Z,44.10
2018-09-26T13:25:42.676Z,43.90
2018-09-26T13:28:11.918Z,43.60
2018-09-26T13:30:42.404Z,44.30
2018-09-26T13:33:11.992Z,44.30
2018-09-26T13:35:40.842Z,44.00
2018-09-26T13:38:13.444Z,45.20
2018-09-26T13:40:51.761Z,45.30
2018-09-26T13:43:20.906Z,44.10
2018-09-26T13:45:49.763Z,45.90
2018-09-26T13:48:18.603Z,45.90
2018-09-26T13:50:47.310Z,46.70
2018-09-26T13:53:16.113Z,47.40
2018-09-26T13:55:44.928Z,46.60
2018-09-26T13:58:13.822Z,45.80
2018-09-26T14:00:42.606Z,46.70
2018-09-26T14:03:11.436Z,46.00
2018-09-26T14:05:40.200Z,46.20
2018-09-26T14:08:09.017Z,46.60
2018-09-26T14:10:38.259Z,46.60
2018-09-26T14:13:15.133Z,46.30
2018-09-26T14:15:44.918Z,45.70
2018-09-26T14:18:13.855Z,45.10
2018-09-26T14:20:42.628Z,46.30
2018-09-26T14:23:11.820Z,44.80
2018-09-26T14:25:40.633Z,44.80
2018-09-26T14:28:16.004Z,44.80
2018-09-26T14:30:44.946Z,44.80
2018-09-26T14:33:13.655Z,44.80
2018-09-26T14:35:42.457Z,44.90
2018-09-26T14:38:11.284Z,45.40
2018-09-26T14:40:40.065Z,45.40
2018-09-26T14:43:08.868Z,46.40
2018-09-26T14:45:37.727Z,45.50
2018-09-26T14:48:06.615Z,46.90
2018-09-26T14:50:36.476Z,45.80
2018-09-26T14:53:06.252Z,45.10
2018-09-26T14:55:36.221Z,45.60
2018-09-26T14:58:06.514Z,45.30
2018-09-26T15:00:39.037Z,44.80
2018-09-26T15:03:08.157Z,45.60
2018-09-26T15:05:36.938Z,45.00
2018-09-26T15:08:05.936Z,45.00
2018-09-26T15:10:34.756Z,44.50
2018-09-26T15:13:03.546Z,45.00
2018-09-26T15:15:32.325Z,44.90
2018-09-26T15:18:01.274Z,45.10
2018-09-26T15:20:30.158Z,45.60
2018-09-26T15:22:59.057Z,45.30
2018-09-26T15:25:28.338Z,43.40
2018-09-26T15:27:57.134Z,41.80
2018-09-26T15:30:25.960Z,43.40
2018-09-26T15:32:54.774Z,43.50
2018-09-26T15:35:23.575Z,44.80
2018-09-26T15:37:52.849Z,44.70
2018-09-26T15:40:21.703Z,44.80
2018-09-26T15:42:50.575Z,44.90
2018-09-26T15:45:19.413Z,44.30
2018-09-26T15:47:48.194Z,44.80
2018-09-26T15:50:20.654Z,45.30
2018-09-26T15:52:50.146Z,45.80
2018-09-26T15:55:18.911Z,45.80
2018-09-26T15:57:48.503Z,45.70
2018-09-26T16:00:17.329Z,45.50
2018-09-26T16:02:46.179Z,44.90
2018-09-26T16:05:15.037Z,43.30
2018-09-26T16:07:47.428Z,44.10
2018-09-26T16:10:17.409Z,44.80
2018-09-26T16:12:46.442Z,44.70
2018-09-26T16:15:15.241Z,44.00
2018-09-26T16:17:44.041Z,45.20
2018-09-26T16:20:12.861Z,44.70
2018-09-26T16:22:41.683Z,45.50
2018-09-26T16:25:10.473Z,45.20
2018-09-26T16:27:39.296Z,46.40
2018-09-26T16:30:12.150Z,46.70
2018-09-26T16:32:41.001Z,47.20
2018-09-26T16:35:10.647Z,47.90
2018-09-26T16:37:45.127Z,48.30
2018-09-26T16:40:14.250Z,48.50
2018-09-26T16:42:43.154Z,48.30
2018-09-26T16:45:12.066Z,47.70
2018-09-26T16:47:41.757Z,46.20
2018-09-26T16:50:10.660Z,46.10
2018-09-26T16:52:39.391Z,45.30
2018-09-26T16:55:08.209Z,45.30
2018-09-26T16:57:36.998Z,45.50
2018-09-26T17:00:05.953Z,46.30
2018-09-26T17:02:34.882Z,44.90
2018-09-26T17:05:03.868Z,45.10
2018-09-26T17:07:32.877Z,44.60
2018-09-26T17:10:01.637Z,44.10
2018-09-26T17:12:30.451Z,43.70
2018-09-26T17:15:09.297Z,44.50
2018-09-26T17:17:38.537Z,44.70
2018-09-26T17:20:07.434Z,44.50
2018-09-26T17:22:42.009Z,44.80
2018-09-26T17:25:12.709Z,45.10
2018-09-26T17:27:42.571Z,44.50
2018-09-26T17:30:14.200Z,44.80
2018-09-26T17:32:43.462Z,45.30
2018-09-26T17:35:12.263Z,45.00
2018-09-26T17:37:41.156Z,46.10
2018-09-26T17:40:11.269Z,46.20
2018-09-26T17:42:40.088Z,45.80
2018-09-26T17:45:09.797Z,45.90
2018-09-26T17:47:38.686Z,46.10
2018-09-26T17:50:07.610Z,45.80
2018-09-26T17:52:36.398Z,46.20
2018-09-26T17:55:05.705Z,46.70
2018-09-26T17:57:34.541Z,46.30
2018-09-26T18:00:03.707Z,46.70
2018-09-26T18:02:32.495Z,47.00
2018-09-26T18:05:01.405Z,47.50
2018-09-26T18:07:30.238Z,48.00
2018-09-26T18:09:59.042Z,48.20
2018-09-26T18:12:27.849Z,48.50
2018-09-26T18:14:56.747Z,48.60
2018-09-26T18:17:29.101Z,48.80
2018-09-26T18:19:57.859Z,48.30
2018-09-26T18:22:26.633Z,48.20
2018-09-26T18:24:55.467Z,48.50
2018-09-26T18:27:24.281Z,48.80
2018-09-26T18:29:53.053Z,48.60
2018-09-26T18:32:22.262Z,48.40
2018-09-26T18:34:51.098Z,49.00
2018-09-26T18:37:19.845Z,49.00
2018-09-26T18:39:48.731Z,49.50
2018-09-26T18:42:17.858Z,49.60
2018-09-26T18:44:46.585Z,49.70
2018-09-26T18:47:15.420Z,49.50
2018-09-26T18:49:44.252Z,49.60
2018-09-26T18:52:13.057Z,49.70
2018-09-26T18:54:42.178Z,49.30
2018-09-26T18:57:11.162Z,49.90
2018-09-26T18:59:40.551Z,48.90
2018-09-26T19:02:11.093Z,49.30
2018-09-26T19:04:40.447Z,49.50
2018-09-26T19:07:09.849Z,49.00
2018-09-26T19:09:39.504Z,49.70
2018-09-26T19:12:10.403Z,49.50
2018-09-26T19:14:39.914Z,50.00
2018-09-26T19:17:11.162Z,50.40
2018-09-26T19:19:41.920Z,50.00
2018-09-26T19:22:13.880Z,50.80
2018-09-26T19:24:45.818Z,50.70
2018-09-26T19:27:15.726Z,51.20
2018-09-26T19:29:46.288Z,50.90
2018-09-26T19:32:18.363Z,50.80
2018-09-26T19:34:47.541Z,50.90
2018-09-26T19:37:17.774Z,51.20
2018-09-26T19:39:48.526Z,51.20
2018-09-26T19:42:17.437Z,51.60
2018-09-26T19:44:46.497Z,50.70
2018-09-26T19:47:15.356Z,52.00
2018-09-26T19:49:46.077Z,52.00
2018-09-26T19:52:14.934Z,52.00
2018-09-26T19:54:43.737Z,52.20
2018-09-26T19:57:12.528Z,52.60
2018-09-26T19:59:41.380Z,52.50
2018-09-26T20:02:10.306Z,53.10
2018-09-26T20:04:39.104Z,53.20
2018-09-26T20:07:10.256Z,53.60
2018-09-26T20:09:40.015Z,53.30
2018-09-26T20:12:11.749Z,54.20
2018-09-26T20:14:41.907Z,54.60
2018-09-26T20:17:12.020Z,54.40
2018-09-26T20:19:41.925Z,54.30
2018-09-26T20:22:11.599Z,55.00
2018-09-26T20:24:41.691Z,55.50
2018-09-26T20:27:16.484Z,56.00
2018-09-26T20:29:59.842Z,55.80
2018-09-26T20:32:29.413Z,56.40
2018-09-26T20:34:58.304Z,56.70
2018-09-26T20:37:27.145Z,56.70
2018-09-26T20:39:55.926Z,57.10
2018-09-26T20:42:24.730Z,57.00
2018-09-26T20:44:53.588Z,57.10
2018-09-26T20:47:22.324Z,57.30
2018-09-26T20:49:51.168Z,57.80
2018-09-26T20:52:19.954Z,57.70
2018-09-26T20:54:48.746Z,57.80
2018-09-26T20:57:17.565Z,57.70
2018-09-26T20:59:46.388Z,58.00
2018-09-26T21:02:15.148Z,58.30
2018-09-26T21:04:43.977Z,58.00
2018-09-26T21:07:12.781Z,58.40
2018-09-26T21:09:41.533Z,58.60
2018-09-26T21:12:10.436Z,59.20
2018-09-26T21:14:39.237Z,59.50
2018-09-26T21:17:08.072Z,59.10
2018-09-26T21:19:36.857Z,59.20
2018-09-26T21:22:05.645Z,59.00
2018-09-26T21:24:34.452Z,59.00
2018-09-26T21:27:03.254Z,59.40
2018-09-26T21:29:32.042Z,59.00
2018-09-26T21:32:00.889Z,58.80
2018-09-26T21:34:29.747Z,58.80
2018-09-26T21:36:58.518Z,58.90
2018-09-26T21:39:27.441Z,59.30
2018-09-26T21:41:56.261Z,59.10
2018-09-26T21:44:25.123Z,59.40
2018-09-26T21:46:53.885Z,59.50
2018-09-26T21:49:22.679Z,59.60
2018-09-26T21:51:51.616Z,59.70
2018-09-26T21:54:20.417Z,59.50
2018-09-26T21:56:49.148Z,59.10
2018-09-26T21:59:17.927Z,59.20
2018-09-26T22:01:46.739Z,58.80
2018-09-26T22:04:15.516Z,58.80
2018-09-26T22:06:44.267Z,58.80
2018-09-26T22:09:13.118Z,58.00
2018-09-26T22:11:41.907Z,58.80
2018-09-26T22:14:10.820Z,58.50
2018-09-26T22:16:39.555Z,58.30
2018-09-26T22:19:08.356Z,58.40
2018-09-26T22:21:37.151Z,58.50
2018-09-26T22:24:05.948Z,58.50
2018-09-26T22:26:34.773Z,58.50
2018-09-26T22:29:03.581Z,58.20
2018-09-26T22:31:32.356Z,58.30
2018-09-26T22:34:01.137Z,58.40
2018-09-26T22:36:29.938Z,58.20
2018-09-26T22:38:58.728Z,58.80
2018-09-26T22:41:27.532Z,58.10
2018-09-26T22:43:56.350Z,58.80
2018-09-26T22:46:25.205Z,58.80
2018-09-26T22:48:54.038Z,58.30
2018-09-26T22:51:22.888Z,58.70
2018-09-26T22:53:51.635Z,58.40
2018-09-26T22:56:20.437Z,58.70
2018-09-26T22:58:49.216Z,58.80
2018-09-26T23:01:17.993Z,58.40
2018-09-26T23:03:46.793Z,58.50
2018-09-26T23:06:15.561Z,58.70
2018-09-26T23:08:44.394Z,58.90
2018-09-26T23:11:13.147Z,59.30
2018-09-26T23:13:41.874Z,59.10
2018-09-26T23:16:10.712Z,59.00
2018-09-26T23:18:39.482Z,59.40
2018-09-26T23:21:08.243Z,59.50
2018-09-26T23:23:37.069Z,59.80
2018-09-26T23:26:05.941Z,59.90
2018-09-26T23:28:34.713Z,60.00
2018-09-26T23:31:03.493Z,60.50
2018-09-26T23:33:32.323Z,60.50
2018-09-26T23:36:01.205Z,60.50
2018-09-26T23:38:30.019Z,60.50
2018-09-26T23:40:58.822Z,60.80
2018-09-26T23:43:27.605Z,60.80
2018-09-26T23:45:56.396Z,60.90
2018-09-26T23:48:25.165Z,61.80
2018-09-26T23:50:53.937Z,61.20
2018-09-26T23:53:22.733Z,61.20
2018-09-26T23:55:51.496Z,61.60
2018-09-26T23:58:20.286Z,61.70
